Time;durP1;ratioP1;P1;durP2;ratioP2;P2;SDS_P1;SDS_P2;PMS_P1;PMS_P2;Temp;Humidity;BMP_temperature;BMP_pressure;BME280_temperature;BME280_humidity;BME280_pressure;Samples;Min_cycle;Max_cycle;Signal;HPM_P1;HPM_P2
2021/12/08 00:00:28;;;;;;;3.70;1.53;;;0.50;94.50;;;;;;2088390;28;20219;-70
2021/12/08 00:01:29;;;;;;;1.23;1.13;;;0.50;94.40;;;;;;2088114;28;20251;-70
2021/12/08 00:02:30;;;;;;;3.53;1.42;;;0.50;94.60;;;;;;2088652;28;20185;-70
2021/12/08 00:03:30;;;;;;;2.80;1.50;;;0.50;94.80;;;;;;2088641;28;20180;-71
2021/12/08 00:04:31;;;;;;;2.27;1.70;;;0.50;95.10;;;;;;2088830;28;20179;-70
2021/12/08 00:05:32;;;;;;;3.10;1.47;;;0.50;95.30;;;;;;2089419;28;20172;-70
2021/12/08 00:06:33;;;;;;;2.72;1.52;;;0.50;95.30;;;;;;2088620;28;20195;-70
2021/12/08 00:07:34;;;;;;;2.63;1.30;;;0.50;95.60;;;;;;2088716;28;20593;-70
2021/12/08 00:08:35;;;;;;;3.45;1.52;;;0.50;95.80;;;;;;2088636;28;20211;-70
2021/12/08 00:13:18;;;;;;;3.22;1.50;;;0.50;96.60;;;;;;2086305;28;20568;-70
2021/12/08 00:14:19;;;;;;;3.30;1.50;;;0.60;97.20;;;;;;2090404;28;20173;-71
2021/12/08 00:15:20;;;;;;;4.20;1.70;;;0.60;97.30;;;;;;2090323;28;20177;-70
2021/12/08 00:16:20;;;;;;;2.83;1.73;;;0.60;97.00;;;;;;2090293;28;20177;-71
2021/12/08 00:17:21;;;;;;;3.53;1.40;;;0.60;97.20;;;;;;2090708;28;20192;-70
2021/12/08 00:18:27;;;;;;;1.27;1.17;;;0.60;97.40;;;;;;2090179;28;20179;-70
2021/12/08 00:19:28;;;;;;;4.18;1.55;;;0.60;97.80;;;;;;2082497;28;20162;-70
2021/12/08 00:20:32;;;;;;;3.45;1.58;;;0.60;97.60;;;;;;2090120;28;20195;-70
2021/12/08 00:21:33;;;;;;;3.47;1.70;;;0.70;97.70;;;;;;2090190;28;20637;-70
2021/12/08 00:22:33;;;;;;;3.70;1.77;;;0.60;97.90;;;;;;2082159;28;20184;-70
2021/12/08 00:23:34;;;;;;;3.00;1.67;;;0.60;98.40;;;;;;2081996;28;20555;-70
2021/12/08 00:24:35;;;;;;;4.00;1.57;;;0.70;98.40;;;;;;2081866;28;20231;-70
2021/12/08 00:25:37;;;;;;;2.33;1.70;;;0.70;98.50;;;;;;2090132;28;20265;-70
2021/12/08 00:26:38;;;;;;;2.83;1.63;;;0.70;98.80;;;;;;2090076;28;20177;-70
2021/12/08 00:27:38;;;;;;;2.47;1.97;;;0.70;98.80;;;;;;2081830;28;20205;-70
2021/12/08 00:28:39;;;;;;;2.37;1.93;;;0.70;98.80;;;;;;2081925;28;20251;-70
2021/12/08 00:29:40;;;;;;;3.87;2.13;;;0.70;98.90;;;;;;2090001;28;20673;-70
2021/12/08 00:30:45;;;;;;;2.73;1.90;;;0.70;98.80;;;;;;2090648;28;20173;-70
2021/12/08 00:31:47;;;;;;;7.43;2.03;;;0.70;99.10;;;;;;2090055;28;20180;-70
2021/12/08 00:32:48;;;;;;;3.60;2.05;;;0.70;99.00;;;;;;2090093;28;20180;-69
2021/12/08 00:33:49;;;;;;;3.05;2.13;;;0.70;99.10;;;;;;2090040;28;20240;-70
2021/12/08 00:34:49;;;;;;;3.60;2.20;;;0.70;99.40;;;;;;2089993;28;20180;-70
2021/12/08 00:35:52;;;;;;;2.97;2.20;;;0.70;99.50;;;;;;2090659;28;20705;-70
2021/12/08 00:36:57;;;;;;;4.53;2.00;;;0.70;99.40;;;;;;2090537;28;20168;-70
2021/12/08 00:37:58;;;;;;;4.15;2.50;;;0.70;99.60;;;;;;2090614;28;20263;-70
2021/12/08 00:38:59;;;;;;;3.25;2.30;;;0.80;99.70;;;;;;2090038;28;20214;-69
2021/12/08 00:39:59;;;;;;;3.07;2.10;;;0.80;99.80;;;;;;2089265;28;20585;-69
2021/12/08 00:41:00;;;;;;;2.57;2.13;;;0.80;99.90;;;;;;2089825;28;20176;-70
2021/12/08 00:42:01;;;;;;;5.20;2.60;;;0.80;99.80;;;;;;2089201;28;20173;-70
2021/12/08 00:43:05;;;;;;;3.40;2.40;;;0.80;99.90;;;;;;2081003;28;20192;-69
2021/12/08 00:44:07;;;;;;;3.80;2.35;;;0.80;99.90;;;;;;2081522;28;20322;-70
2021/12/08 00:45:11;;;;;;;4.95;2.50;;;0.80;99.90;;;;;;2090158;28;20181;-70
2021/12/08 00:46:12;;;;;;;5.18;2.88;;;0.80;99.90;;;;;;2089960;28;20169;-70
2021/12/08 00:47:13;;;;;;;3.87;2.67;;;0.80;99.90;;;;;;2081704;28;20577;-70
2021/12/08 00:48:14;;;;;;;3.30;2.70;;;0.80;99.90;;;;;;2081874;28;20693;-70
2021/12/08 00:49:16;;;;;;;3.72;2.55;;;0.90;99.90;;;;;;2081956;28;20184;-70
2021/12/08 00:50:21;;;;;;;3.60;2.47;;;0.90;99.90;;;;;;2081798;28;20190;-70
2021/12/08 00:51:22;;;;;;;4.10;2.95;;;0.90;99.90;;;;;;2090045;28;20184;-70
2021/12/08 00:52:28;;;;;;;5.15;2.80;;;0.90;99.90;;;;;;2090059;28;20726;-70
2021/12/08 00:53:28;;;;;;;3.83;2.85;;;0.90;99.90;;;;;;2090095;28;20581;-70
2021/12/08 00:54:29;;;;;;;5.73;3.07;;;0.90;99.90;;;;;;2089901;28;20199;-70
2021/12/08 00:55:31;;;;;;;5.83;2.70;;;0.90;99.90;;;;;;2090038;28;20601;-70
2021/12/08 00:56:32;;;;;;;4.40;2.92;;;0.90;99.90;;;;;;2089843;28;20584;-70
2021/12/08 00:57:32;;;;;;;3.72;2.70;;;0.90;99.90;;;;;;2089932;28;20213;-70
2021/12/08 00:58:33;;;;;;;4.40;2.70;;;0.90;99.90;;;;;;2089957;28;20192;-70
2021/12/08 00:59:34;;;;;;;5.33;3.13;;;0.90;99.90;;;;;;2089902;28;20204;-70
2021/12/08 01:00:47;;;;;;;3.53;2.73;;;0.90;99.90;;;;;;2090358;28;20176;-70
2021/12/08 01:01:48;;;;;;;4.97;2.88;;;0.90;99.90;;;;;;2090009;28;20176;-70
2021/12/08 01:02:49;;;;;;;4.60;2.85;;;0.90;99.90;;;;;;2081738;28;20313;-70
2021/12/08 01:03:50;;;;;;;5.30;3.17;;;0.90;99.90;;;;;;2081627;28;20189;-70
2021/12/08 01:04:51;;;;;;;5.90;3.13;;;0.90;99.90;;;;;;2081628;28;20456;-70
2021/12/08 01:05:56;;;;;;;4.53;3.00;;;0.90;99.90;;;;;;2089777;28;20291;-70
2021/12/08 01:06:57;;;;;;;5.45;3.05;;;0.90;99.90;;;;;;2090285;28;20168;-70
2021/12/08 01:07:58;;;;;;;4.60;2.95;;;0.90;99.90;;;;;;2089789;28;20176;-71
2021/12/08 01:08:59;;;;;;;5.82;2.88;;;0.90;99.90;;;;;;2089768;28;20663;-70
2021/12/08 01:10:00;;;;;;;5.90;3.30;;;0.90;99.90;;;;;;2090352;28;20176;-70
2021/12/08 01:11:16;;;;;;;4.85;3.22;;;0.90;99.90;;;;;;2089993;28;20279;-70
2021/12/08 01:12:17;;;;;;;4.75;2.97;;;0.90;99.90;;;;;;2089906;28;20719;-70
2021/12/08 01:13:19;;;;;;;7.57;3.57;;;0.90;99.90;;;;;;2089499;28;20184;-70
2021/12/08 01:14:20;;;;;;;4.90;2.97;;;0.90;99.90;;;;;;2087939;28;20211;-71
2021/12/08 01:15:26;;;;;;;8.10;3.17;;;1.00;99.90;;;;;;2089791;28;20203;-70
2021/12/08 01:16:27;;;;;;;4.97;3.03;;;0.90;99.90;;;;;;2089931;28;20160;-70
2021/12/08 01:17:27;;;;;;;5.85;3.65;;;0.90;99.90;;;;;;2081464;28;20212;-72
2021/12/08 01:18:30;;;;;;;4.77;3.43;;;0.90;99.90;;;;;;2089810;28;20891;-70
2021/12/08 01:19:31;;;;;;;4.88;3.25;;;0.90;99.90;;;;;;2089837;28;20311;-71
2021/12/08 01:20:32;;;;;;;6.22;3.38;;;0.90;99.90;;;;;;2081610;28;20181;-70
2021/12/08 01:21:33;;;;;;;5.27;3.40;;;0.90;99.90;;;;;;2089945;28;20660;-70
2021/12/08 01:22:34;;;;;;;5.33;3.40;;;0.90;99.90;;;;;;2090697;28;20849;-70
2021/12/08 01:23:35;;;;;;;4.28;3.17;;;0.90;99.90;;;;;;2089205;28;20197;-70
2021/12/08 01:24:36;;;;;;;5.35;3.35;;;0.90;99.90;;;;;;2081669;28;20194;-71
2021/12/08 01:25:37;;;;;;;5.87;3.57;;;0.90;99.90;;;;;;2081585;28;20227;-71
2021/12/08 01:26:38;;;;;;;4.68;3.33;;;0.90;99.90;;;;;;2089679;28;20263;-71
2021/12/08 01:27:39;;;;;;;3.43;2.97;;;1.00;99.90;;;;;;2090181;28;20727;-70
2021/12/08 01:28:40;;;;;;;5.40;3.47;;;1.00;99.90;;;;;;2089598;28;20801;-71
2021/12/08 01:29:40;;;;;;;4.67;3.60;;;0.90;99.90;;;;;;2089799;28;20268;-71
2021/12/08 01:30:41;;;;;;;7.43;3.53;;;0.90;99.90;;;;;;2081383;28;20264;-70
2021/12/08 01:31:44;;;;;;;4.77;3.37;;;1.00;99.90;;;;;;2089811;28;20180;-70
2021/12/08 01:32:45;;;;;;;6.25;3.90;;;0.90;99.90;;;;;;2089677;28;20177;-71
2021/12/08 01:33:45;;;;;;;7.17;3.43;;;0.90;99.90;;;;;;2089490;28;20596;-71
2021/12/08 01:34:46;;;;;;;3.53;2.93;;;0.90;99.90;;;;;;2089592;28;20720;-70
2021/12/08 01:35:47;;;;;;;6.70;3.60;;;1.00;99.90;;;;;;2081240;28;20177;-71
2021/12/08 01:36:48;;;;;;;5.83;3.87;;;1.00;99.90;;;;;;2089546;28;20629;-71
2021/12/08 01:37:48;;;;;;;4.20;3.40;;;1.00;99.90;;;;;;2090333;28;20181;-71
2021/12/08 01:38:49;;;;;;;4.60;3.13;;;1.00;99.90;;;;;;2090327;28;20212;-71
2021/12/08 01:39:50;;;;;;;4.47;3.20;;;1.00;99.90;;;;;;2089529;28;20204;-71
2021/12/08 01:40:51;;;;;;;5.27;3.93;;;0.90;99.90;;;;;;2081189;28;20177;-71
2021/12/08 01:41:53;;;;;;;5.10;3.20;;;0.90;99.90;;;;;;2089666;28;20641;-71
2021/12/08 01:42:57;;;;;;;5.28;3.60;;;1.00;99.90;;;;;;2089524;28;20192;-70
2021/12/08 01:46:42;;;;;;;4.53;3.13;;;1.00;99.90;;;;;;2090188;28;20278;-71
2021/12/08 01:47:43;;;;;;;5.17;3.43;;;1.00;99.90;;;;;;2089611;28;20668;-71
2021/12/08 01:48:45;;;;;;;7.37;3.40;;;1.00;99.90;;;;;;2089448;28;20208;-71
2021/12/08 01:49:46;;;;;;;5.05;3.67;;;1.00;99.90;;;;;;2089465;28;20555;-71
2021/12/08 01:50:52;;;;;;;9.13;3.90;;;1.00;99.90;;;;;;2089328;28;20267;-71
2021/12/08 01:51:53;;;;;;;5.53;3.90;;;1.00;99.90;;;;;;2089693;28;20560;-71
2021/12/08 01:52:54;;;;;;;7.63;4.60;;;1.00;99.90;;;;;;2081347;28;20268;-71
2021/12/08 01:53:57;;;;;;;5.40;3.70;;;0.90;99.90;;;;;;2081401;28;20685;-71
2021/12/08 01:54:57;;;;;;;8.20;4.45;;;0.90;99.90;;;;;;2081467;28;20174;-71
2021/12/08 01:55:59;;;;;;;6.10;3.93;;;0.90;99.90;;;;;;2081268;28;20559;-71
2021/12/08 01:57:00;;;;;;;6.18;4.05;;;1.00;99.90;;;;;;2081217;28;20173;-71
2021/12/08 01:58:00;;;;;;;5.60;3.97;;;1.00;99.90;;;;;;2089452;28;20267;-71
2021/12/08 01:59:06;;;;;;;4.77;3.87;;;1.00;99.90;;;;;;2090024;28;20667;-71
2021/12/08 02:00:23;;;;;;;7.05;4.30;;;1.00;99.90;;;;;;2089374;28;20259;-71
2021/12/08 02:01:27;;;;;;;5.55;4.05;;;1.00;99.90;;;;;;2089674;28;20169;-71
2021/12/08 02:02:28;;;;;;;6.65;4.03;;;0.90;99.90;;;;;;2089420;28;20569;-70
2021/12/08 02:03:30;;;;;;;9.20;4.10;;;0.90;99.90;;;;;;2089565;28;20180;-70
2021/12/08 02:04:31;;;;;;;5.85;4.05;;;0.90;99.90;;;;;;2090040;28;20172;-70
2021/12/08 02:05:32;;;;;;;7.03;4.30;;;0.90;99.90;;;;;;2090069;28;20183;-71
2021/12/08 02:06:39;;;;;;;8.32;5.57;;;0.90;99.90;;;;;;2089229;28;20188;-71
2021/12/08 02:07:39;;;;;;;10.30;5.53;;;0.80;99.90;;;;;;2089399;28;20569;-71
2021/12/08 02:08:41;;;;;;;8.13;4.43;;;0.80;99.90;;;;;;2089494;28;20232;-71
2021/12/08 02:09:43;;;;;;;8.30;4.95;;;0.80;99.90;;;;;;2081429;28;20248;-71
2021/12/08 02:10:44;;;;;;;8.52;4.57;;;0.80;99.90;;;;;;2089332;28;20181;-70
2021/12/08 02:11:47;;;;;;;6.93;4.32;;;0.80;99.90;;;;;;2089958;28;20200;-71
2021/12/08 02:12:48;;;;;;;7.32;4.90;;;0.90;99.90;;;;;;2089392;28;20583;-71
2021/12/08 02:13:52;;;;;;;9.65;5.63;;;0.80;99.90;;;;;;2089346;28;20172;-71
2021/12/08 02:14:53;;;;;;;7.13;4.53;;;0.80;99.90;;;;;;2081626;28;20687;-70
2021/12/08 02:15:53;;;;;;;8.23;4.63;;;0.80;99.90;;;;;;2089216;28;20180;-71
2021/12/08 02:16:55;;;;;;;7.50;4.83;;;0.80;99.90;;;;;;2089651;28;20208;-71
2021/12/08 02:17:57;;;;;;;7.75;4.65;;;0.90;99.90;;;;;;2089807;28;20184;-71
2021/12/08 02:18:59;;;;;;;7.82;4.97;;;0.90;99.90;;;;;;2089279;28;20675;-71
2021/12/08 02:20:04;;;;;;;10.82;5.47;;;0.90;99.90;;;;;;2089109;28;20177;-71
2021/12/08 02:21:28;;;;;;;5.90;4.75;;;0.90;99.90;;;;;;2089408;28;20289;-71
2021/12/08 02:22:29;;;;;;;6.75;4.72;;;0.90;99.90;;;;;;2084228;28;20165;-71
2021/12/08 02:23:31;;;;;;;10.80;5.27;;;0.90;99.90;;;;;;2089253;28;20183;-71
2021/12/08 02:24:32;;;;;;;7.90;4.85;;;0.90;99.90;;;;;;2089277;28;20177;-71
2021/12/08 02:25:32;;;;;;;8.50;4.87;;;0.90;99.90;;;;;;2089234;28;20620;-71
2021/12/08 02:26:34;;;;;;;6.17;4.57;;;0.90;99.90;;;;;;2089279;28;20672;-71
2021/12/08 02:27:36;;;;;;;7.50;5.10;;;0.90;99.90;;;;;;2080946;28;20191;-71
2021/12/08 02:28:37;;;;;;;10.15;5.70;;;0.90;99.90;;;;;;2081024;28;20599;-71
2021/12/08 02:29:49;;;;;;;10.03;5.77;;;0.90;99.90;;;;;;2089219;28;20188;-71
2021/12/08 02:30:56;;;;;;;9.05;4.93;;;0.90;99.90;;;;;;2089741;28;20246;-71
2021/12/08 02:47:14;;;;;;;9.35;5.90;;;0.80;99.90;;;;;;2089230;28;20192;-71
2021/12/08 02:48:14;;;;;;;8.35;5.50;;;0.80;99.90;;;;;;2089541;28;20195;-71
2021/12/08 02:49:21;;;;;;;9.60;6.30;;;0.80;99.90;;;;;;2088905;28;20184;-71
2021/12/08 02:50:30;;;;;;;10.27;6.00;;;0.80;99.90;;;;;;2089014;28;20164;-71
2021/12/08 02:51:31;;;;;;;10.43;6.55;;;0.80;99.90;;;;;;2082099;28;20276;-71
2021/12/08 02:52:32;;;;;;;8.70;5.80;;;0.80;99.90;;;;;;2089112;28;20664;-71
2021/12/08 02:53:33;;;;;;;9.93;6.70;;;0.80;99.90;;;;;;2089715;28;20173;-71
2021/12/08 02:54:43;;;;;;;10.05;6.68;;;0.80;99.90;;;;;;2089567;28;20176;-71
2021/12/08 02:55:44;;;;;;;9.82;6.45;;;0.80;99.90;;;;;;2089129;28;20208;-72
2021/12/08 02:56:45;;;;;;;11.63;6.35;;;0.80;99.90;;;;;;2080641;28;20182;-72
2021/12/08 02:57:46;;;;;;;10.60;6.03;;;0.80;99.90;;;;;;2088994;28;20192;-72
2021/12/08 02:58:48;;;;;;;11.38;5.85;;;0.80;99.90;;;;;;2089512;28;20188;-71
2021/12/08 02:59:48;;;;;;;10.38;6.40;;;0.80;99.90;;;;;;2088860;28;20249;-71
2021/12/08 03:01:00;;;;;;;11.50;6.50;;;0.80;99.90;;;;;;2088850;28;20184;-71
2021/12/08 03:02:01;;;;;;;10.77;6.18;;;0.80;99.90;;;;;;2089097;28;20172;-71
2021/12/08 03:03:04;;;;;;;10.63;6.63;;;0.80;99.90;;;;;;2088917;28;20176;-71
2021/12/08 03:04:08;;;;;;;11.13;6.22;;;0.70;99.90;;;;;;2080739;28;20177;-71
2021/12/08 03:05:10;;;;;;;11.63;6.13;;;0.80;99.90;;;;;;2081028;28;20180;-71
2021/12/08 03:06:12;;;;;;;10.80;6.95;;;0.80;99.90;;;;;;2080731;28;20926;-71
2021/12/08 03:07:13;;;;;;;10.15;5.95;;;0.70;99.90;;;;;;2080802;28;20211;-71
2021/12/08 03:08:14;;;;;;;8.53;5.77;;;0.80;99.90;;;;;;2072510;28;20278;-71
2021/12/08 03:09:15;;;;;;;11.05;6.65;;;0.80;99.90;;;;;;2080734;28;20192;-71
2021/12/08 03:10:20;;;;;;;9.10;5.90;;;0.80;99.90;;;;;;2089302;28;20271;-72
2021/12/08 03:11:21;;;;;;;10.75;7.00;;;0.80;99.90;;;;;;2089224;28;20222;-71
2021/12/08 03:12:30;;;;;;;10.60;6.10;;;0.80;99.90;;;;;;2088955;28;20231;-72
2021/12/08 03:13:39;;;;;;;10.15;6.13;;;0.80;99.90;;;;;;2088933;28;20176;-71
2021/12/08 03:14:40;;;;;;;11.20;6.10;;;0.90;99.90;;;;;;2088950;28;20573;-71
2021/12/08 03:15:43;;;;;;;10.17;6.73;;;0.90;99.90;;;;;;2088837;28;20180;-72
2021/12/08 03:16:51;;;;;;;9.75;6.45;;;0.90;99.90;;;;;;2089317;28;20191;-72
2021/12/08 03:17:52;;;;;;;9.85;5.75;;;0.90;99.90;;;;;;2089484;28;20187;-71
2021/12/08 03:18:53;;;;;;;10.30;6.47;;;1.00;99.90;;;;;;2088950;28;20211;-72
2021/12/08 03:19:54;;;;;;;9.25;6.00;;;1.00;99.90;;;;;;2080551;28;20188;-71
2021/12/08 03:20:54;;;;;;;11.50;6.10;;;1.00;99.90;;;;;;2088802;28;20604;-71
2021/12/08 03:21:56;;;;;;;6.73;5.17;;;1.00;99.90;;;;;;2089483;28;20198;-72
2021/12/08 03:23:02;;;;;;;7.43;5.40;;;1.00;99.90;;;;;;2088925;28;20184;-71
2021/12/08 03:25:13;;;;;;;10.32;5.97;;;0.90;99.90;;;;;;2089298;28;20177;-72
2021/12/08 03:26:14;;;;;;;9.77;5.78;;;1.00;99.90;;;;;;2089042;28;20216;-72
2021/12/08 03:27:19;;;;;;;8.85;5.95;;;1.00;99.90;;;;;;2081065;28;20193;-73
2021/12/08 03:28:24;;;;;;;8.00;5.53;;;1.00;99.90;;;;;;2089049;28;20204;-72
2021/12/08 03:29:31;;;;;;;8.88;5.88;;;1.00;99.90;;;;;;2089643;28;20179;-72
2021/12/08 03:30:49;;;;;;;7.88;5.43;;;1.00;99.90;;;;;;2088756;28;20181;-72
2021/12/08 03:31:53;;;;;;;6.30;4.47;;;1.00;99.90;;;;;;2083977;28;20634;-71
2021/12/08 03:32:57;;;;;;;7.95;4.72;;;1.00;99.90;;;;;;2089001;28;20221;-72
2021/12/08 03:33:58;;;;;;;8.20;4.95;;;1.00;99.90;;;;;;2088858;28;20183;-71
2021/12/08 03:34:59;;;;;;;6.53;4.60;;;1.00;99.90;;;;;;2088915;28;20221;-72
2021/12/08 03:35:59;;;;;;;8.47;5.33;;;1.00;99.90;;;;;;2088779;28;20249;-71
2021/12/08 03:37:00;;;;;;;6.43;4.63;;;1.00;99.90;;;;;;2088658;28;20180;-72
2021/12/08 03:38:01;;;;;;;6.97;4.43;;;1.00;99.90;;;;;;2088899;28;20176;-72
2021/12/08 03:39:03;;;;;;;6.32;4.13;;;1.00;99.90;;;;;;2088922;28;20218;-72
2021/12/08 03:40:32;;;;;;;8.02;5.13;;;1.00;99.90;;;;;;2089409;28;20267;-71
2021/12/08 03:41:34;;;;;;;7.47;5.18;;;1.00;99.90;;;;;;2088962;28;20218;-72
2021/12/08 03:42:37;;;;;;;5.47;4.22;;;1.00;99.90;;;;;;2080757;28;20686;-71
2021/12/08 03:43:38;;;;;;;7.03;5.00;;;1.00;99.90;;;;;;2080956;28;20262;-72
2021/12/08 03:44:39;;;;;;;7.30;4.77;;;1.00;99.90;;;;;;2080840;28;20181;-72
2021/12/08 03:45:46;;;;;;;7.03;4.77;;;1.10;99.90;;;;;;2080675;28;20228;-72
2021/12/08 03:46:47;;;;;;;5.45;4.18;;;1.10;99.90;;;;;;2082318;28;20536;-71
2021/12/08 03:47:58;;;;;;;7.60;4.77;;;1.10;99.90;;;;;;2082436;28;20213;-72
2021/12/08 03:49:05;;;;;;;6.43;4.18;;;1.10;99.90;;;;;;2090564;28;20436;-72
2021/12/08 03:50:09;;;;;;;6.20;4.10;;;1.10;99.90;;;;;;2090401;28;20669;-72
2021/12/08 03:51:10;;;;;;;6.68;4.25;;;1.10;99.90;;;;;;2083080;28;20174;-72
2021/12/08 03:52:11;;;;;;;6.93;4.70;;;1.10;99.90;;;;;;2090555;28;20229;-72
2021/12/08 03:53:15;;;;;;;7.43;4.87;;;1.10;99.90;;;;;;2091147;28;20441;-72
2021/12/08 03:54:16;;;;;;;7.65;4.72;;;1.10;99.90;;;;;;2091070;28;20164;-71
2021/12/08 03:55:17;;;;;;;7.53;4.83;;;1.20;99.90;;;;;;2090374;28;20267;-72
2021/12/08 03:56:18;;;;;;;8.67;5.07;;;1.20;99.90;;;;;;2082207;28;20621;-71
2021/12/08 03:57:19;;;;;;;7.37;4.60;;;1.20;99.90;;;;;;2089866;28;20192;-71
2021/12/08 03:58:22;;;;;;;7.40;4.90;;;1.20;99.90;;;;;;2090405;28;20173;-72
2021/12/08 03:59:22;;;;;;;8.95;5.53;;;1.30;99.90;;;;;;2090421;28;20185;-72
2021/12/08 04:00:26;;;;;;;9.37;6.20;;;1.30;99.90;;;;;;2090255;28;20235;-72
2021/12/08 04:01:27;;;;;;;8.70;5.57;;;1.30;99.90;;;;;;2090265;28;20676;-71
2021/12/08 04:02:28;;;;;;;6.93;4.57;;;1.30;99.90;;;;;;2090306;28;20191;-71
2021/12/08 04:03:32;;;;;;;6.90;4.40;;;1.30;99.90;;;;;;2090232;28;20169;-72
2021/12/08 04:04:42;;;;;;;8.98;4.75;;;1.40;99.90;;;;;;2090972;28;20226;-71
2021/12/08 04:05:53;;;;;;;7.05;4.60;;;1.30;99.90;;;;;;2090240;28;20169;-71
2021/12/08 04:06:56;;;;;;;6.78;4.72;;;1.30;99.90;;;;;;2084573;28;20271;-72
2021/12/08 04:08:03;;;;;;;6.82;4.40;;;1.30;99.90;;;;;;2083822;28;20298;-71
2021/12/08 04:09:06;;;;;;;6.28;4.45;;;1.30;99.90;;;;;;2090451;28;20165;-72
2021/12/08 04:10:15;;;;;;;4.80;3.75;;;1.30;99.90;;;;;;2090831;28;20723;-72
2021/12/08 04:11:15;;;;;;;6.85;4.55;;;1.30;99.90;;;;;;2090443;28;20168;-72
2021/12/08 04:12:20;;;;;;;6.40;4.00;;;1.40;99.90;;;;;;2090416;28;20173;-74
2021/12/08 04:13:31;;;;;;;6.40;4.43;;;1.40;99.90;;;;;;2090924;28;20177;-72
2021/12/08 04:14:37;;;;;;;8.30;4.10;;;1.40;99.90;;;;;;2090195;28;20255;-72
2021/12/08 04:15:38;;;;;;;5.35;3.85;;;1.40;99.90;;;;;;2082750;28;20175;-72
2021/12/08 04:16:47;;;;;;;6.65;4.75;;;1.30;99.90;;;;;;2081885;28;20196;-71
2021/12/08 04:17:53;;;;;;;6.70;4.43;;;1.30;99.90;;;;;;2083370;28;20169;-72
2021/12/08 04:18:57;;;;;;;8.02;4.47;;;1.40;99.90;;;;;;2090355;28;20524;-72
2021/12/08 04:20:02;;;;;;;6.40;4.50;;;1.40;99.90;;;;;;2090665;28;20180;-72
2021/12/08 04:21:06;;;;;;;6.72;4.38;;;1.40;99.90;;;;;;2090295;28;20203;-71
2021/12/08 04:22:13;;;;;;;6.80;4.25;;;1.40;99.90;;;;;;2090233;28;20228;-71
2021/12/08 04:23:17;;;;;;;7.68;4.43;;;1.40;99.90;;;;;;2090913;28;20720;-72
2021/12/08 04:24:18;;;;;;;6.55;4.57;;;1.50;99.90;;;;;;2090178;28;20222;-72
2021/12/08 04:25:28;;;;;;;4.80;3.97;;;1.40;99.90;;;;;;2090083;28;20192;-72
2021/12/08 04:26:39;;;;;;;7.05;4.70;;;1.50;99.90;;;;;;2090764;28;20160;-71
2021/12/08 04:27:42;;;;;;;6.15;4.18;;;1.50;99.90;;;;;;2090676;28;20254;-71
2021/12/08 04:28:43;;;;;;;7.03;4.60;;;1.50;99.90;;;;;;2090024;28;20209;-71
2021/12/08 04:29:45;;;;;;;6.13;4.50;;;1.40;99.90;;;;;;2081942;28;20646;-71
2021/12/08 04:31:06;;;;;;;10.10;5.72;;;1.40;99.90;;;;;;2089851;28;20183;-71
2021/12/08 04:32:08;;;;;;;11.25;5.97;;;1.40;99.90;;;;;;2090153;28;20179;-71
2021/12/08 04:33:10;;;;;;;10.20;6.15;;;1.40;99.90;;;;;;2090046;28;20210;-71
2021/12/08 04:34:22;;;;;;;6.70;4.65;;;1.40;99.90;;;;;;2090673;28;20227;-71
2021/12/08 04:35:24;;;;;;;7.57;5.32;;;1.40;99.90;;;;;;2090598;28;20227;-71
2021/12/08 04:36:37;;;;;;;8.23;5.32;;;1.40;99.90;;;;;;2090626;28;20593;-71
2021/12/08 04:37:45;;;;;;;7.07;4.93;;;1.40;99.90;;;;;;2090046;28;20672;-71
2021/12/08 04:38:50;;;;;;;7.20;4.60;;;1.50;99.90;;;;;;2083432;28;20657;-71
2021/12/08 04:40:11;;;;;;;8.05;4.82;;;1.50;99.90;;;;;;2082921;28;20170;-71
2021/12/08 04:41:19;;;;;;;6.93;4.55;;;1.50;99.90;;;;;;2085059;28;20174;-72
2021/12/08 04:42:32;;;;;;;4.75;3.15;;;1.50;99.90;;;;;;2084698;28;20161;-72
2021/12/08 04:43:57;;;;;;;6.70;4.57;;;1.50;99.90;;;;;;2090452;28;20653;-72
2021/12/08 04:45:06;;;;;;;5.75;3.90;;;1.50;99.90;;;;;;2090626;28;20580;-72
2021/12/08 04:47:48;;;;;;;7.55;4.88;;;1.50;99.90;;;;;;2090325;28;20211;-72
2021/12/08 04:50:42;;;;;;;5.35;3.50;;;1.50;99.90;;;;;;2087257;28;20724;-72
2021/12/08 04:51:52;;;;;;;7.22;5.20;;;1.50;99.90;;;;;;2090451;28;20189;-72
2021/12/08 05:01:22;;;;;;;11.13;4.10;;;1.50;99.90;;;;;;2086576;28;20243;-72
2021/12/08 05:05:38;;;;;;;8.80;4.47;;;1.60;99.90;;;;;;2087403;28;20192;-71
2021/12/08 05:07:00;;;;;;;7.60;4.78;;;1.60;99.90;;;;;;2088454;28;20217;-71
2021/12/08 05:08:15;;;;;;;5.30;3.58;;;1.60;99.90;;;;;;2087801;28;20569;-71
2021/12/08 05:09:21;;;;;;;5.43;4.00;;;1.70;99.90;;;;;;2085115;28;20200;-70
2021/12/08 05:10:36;;;;;;;8.38;5.15;;;1.70;99.90;;;;;;2084064;28;20184;-71
2021/12/08 05:11:46;;;;;;;7.57;4.32;;;1.70;99.90;;;;;;2083601;28;20517;-71
2021/12/08 05:12:50;;;;;;;9.30;4.90;;;1.70;99.90;;;;;;2074530;28;20627;-71
2021/12/08 05:13:57;;;;;;;7.13;4.55;;;1.70;99.90;;;;;;2073928;28;20738;-71
2021/12/08 05:15:23;;;;;;;10.90;5.80;;;1.70;99.90;;;;;;2081476;28;20177;-70
2021/12/08 05:16:27;;;;;;;8.18;5.47;;;1.70;99.90;;;;;;2081735;28;20168;-71
2021/12/08 05:17:53;;;;;;;8.73;5.47;;;1.60;99.90;;;;;;2089297;28;20274;-70
2021/12/08 05:18:56;;;;;;;8.23;5.57;;;1.60;99.90;;;;;;2085049;28;20607;-70
2021/12/08 05:20:05;;;;;;;7.38;4.90;;;1.50;99.90;;;;;;2089729;28;20271;-71
2021/12/08 05:21:33;;;;;;;7.03;5.20;;;1.50;99.90;;;;;;2089722;28;20191;-71
2021/12/08 05:22:41;;;;;;;8.23;4.68;;;1.40;99.90;;;;;;2090005;28;20173;-70
2021/12/08 05:24:09;;;;;;;10.07;6.55;;;1.40;99.90;;;;;;2090339;28;20168;-70
2021/12/08 05:25:15;;;;;;;8.70;5.07;;;1.40;99.90;;;;;;2090388;28;20185;-71
2021/12/08 05:26:27;;;;;;;8.95;5.22;;;1.30;99.90;;;;;;2090402;28;20168;-70
2021/12/08 05:27:33;;;;;;;7.25;5.10;;;1.30;99.90;;;;;;2090223;28;20575;-71
2021/12/08 05:28:34;;;;;;;9.02;5.95;;;1.30;99.90;;;;;;2090289;28;20197;-70
2021/12/08 05:29:43;;;;;;;8.20;5.95;;;1.20;99.90;;;;;;2090149;28;20173;-71
2021/12/08 05:31:04;;;;;;;8.35;5.43;;;1.20;99.90;;;;;;2090424;28;20157;-70
2021/12/08 05:32:07;;;;;;;10.57;5.90;;;1.20;99.90;;;;;;2090405;28;20177;-70
2021/12/08 05:33:09;;;;;;;6.78;4.80;;;1.20;99.90;;;;;;2089694;28;20177;-70
2021/12/08 05:34:10;;;;;;;9.40;6.07;;;1.20;99.90;;;;;;2089658;28;20176;-70
2021/12/08 05:35:14;;;;;;;9.43;5.60;;;1.20;99.90;;;;;;2090155;28;20169;-71
2021/12/08 05:36:16;;;;;;;9.27;5.82;;;1.30;99.90;;;;;;2089717;28;20648;-70
2021/12/08 05:37:22;;;;;;;8.23;5.78;;;1.20;99.90;;;;;;2081448;28;20220;-70
2021/12/08 05:38:23;;;;;;;8.55;5.25;;;1.30;99.90;;;;;;2089687;28;20173;-70
2021/12/08 05:39:28;;;;;;;7.30;5.57;;;1.30;99.90;;;;;;2090220;28;20177;-70
2021/12/08 05:40:47;;;;;;;8.95;5.97;;;1.30;99.90;;;;;;2089463;28;20175;-70
2021/12/08 05:41:58;;;;;;;8.95;5.63;;;1.30;99.90;;;;;;2089850;28;20176;-70
2021/12/08 05:42:59;;;;;;;9.13;5.55;;;1.30;99.90;;;;;;2090277;28;20669;-70
2021/12/08 05:44:01;;;;;;;7.88;5.00;;;1.20;99.90;;;;;;2090097;28;20184;-70
2021/12/08 05:45:13;;;;;;;8.30;5.47;;;1.20;99.90;;;;;;2089564;28;20188;-70
2021/12/08 05:46:17;;;;;;;9.13;6.13;;;1.20;99.90;;;;;;2082552;28;20185;-70
2021/12/08 05:47:24;;;;;;;8.30;5.95;;;1.20;99.90;;;;;;2089478;28;20258;-70
2021/12/08 05:48:27;;;;;;;10.65;6.47;;;1.10;99.90;;;;;;2089412;28;20254;-70
2021/12/08 05:49:28;;;;;;;12.00;7.28;;;1.10;99.90;;;;;;2089563;28;20208;-70
2021/12/08 05:50:56;;;;;;;12.00;6.80;;;1.10;99.90;;;;;;2089816;28;20176;-70
2021/12/08 05:51:57;;;;;;;10.00;6.43;;;1.10;99.90;;;;;;2090109;28;20177;-70
2021/12/08 05:52:58;;;;;;;9.83;6.60;;;1.10;99.90;;;;;;2089481;28;20211;-70
2021/12/08 05:54:05;;;;;;;9.47;6.53;;;1.00;99.90;;;;;;2089344;28;20242;-70
2021/12/08 05:55:07;;;;;;;10.95;7.00;;;1.00;99.90;;;;;;2089470;28;20403;-71
2021/12/08 05:56:09;;;;;;;11.98;6.80;;;1.00;99.90;;;;;;2081280;28;20599;-71
2021/12/08 05:57:18;;;;;;;9.50;6.53;;;1.00;99.90;;;;;;2081133;28;20229;-70
2021/12/08 05:58:21;;;;;;;9.88;6.18;;;1.00;99.90;;;;;;2082279;28;20264;-70
2021/12/08 05:59:24;;;;;;;10.43;6.65;;;1.00;99.90;;;;;;2089424;28;20738;-70
2021/12/08 06:00:34;;;;;;;11.05;7.10;;;1.00;99.90;;;;;;2089829;28;20214;-71
2021/12/08 06:01:39;;;;;;;12.77;7.47;;;1.00;99.90;;;;;;2090102;28;20165;-71
2021/12/08 06:02:41;;;;;;;13.15;7.38;;;0.90;99.90;;;;;;2089783;28;20184;-70
2021/12/08 06:03:44;;;;;;;36.67;19.17;;;0.90;99.90;;;;;;2090054;28;20184;-70
2021/12/08 06:04:46;;;;;;;11.35;7.22;;;0.90;99.90;;;;;;2089352;28;20173;-71
2021/12/08 06:05:51;;;;;;;12.77;7.57;;;1.00;99.90;;;;;;2089283;28;20180;-70
2021/12/08 06:06:53;;;;;;;10.25;6.70;;;1.00;99.90;;;;;;2089156;28;20180;-71
2021/12/08 06:07:54;;;;;;;10.77;6.55;;;1.00;99.90;;;;;;2081306;28;20188;-70
2021/12/08 06:08:56;;;;;;;11.18;6.65;;;1.00;99.90;;;;;;2081070;28;20200;-70
2021/12/08 06:10:02;;;;;;;12.63;7.57;;;1.00;99.90;;;;;;2080958;28;20185;-70
2021/12/08 06:11:07;;;;;;;10.57;6.55;;;1.00;99.90;;;;;;2081878;28;20177;-70
2021/12/08 06:12:10;;;;;;;8.98;5.65;;;1.00;99.90;;;;;;2081578;28;20573;-71
2021/12/08 06:13:13;;;;;;;8.18;5.35;;;1.10;99.90;;;;;;2089277;28;20265;-70
2021/12/08 06:14:17;;;;;;;7.97;5.70;;;1.10;99.90;;;;;;2089261;28;20180;-70
2021/12/08 06:15:19;;;;;;;10.57;6.35;;;1.10;99.90;;;;;;2081293;28;20173;-71